createdAt,value
2019-02-02T00:02:02.022Z,27.07
2019-02-02T00:04:31.138Z,25.90
2019-02-02T00:07:00.718Z,27.50
2019-02-02T00:09:30.524Z,29.33
2019-02-02T00:11:59.906Z,27.70
2019-02-02T00:14:29.319Z,28.17
2019-02-02T00:16:58.667Z,29.50
2019-02-02T00:19:28.719Z,25.80
2019-02-02T00:22:02.213Z,23.63
2019-02-02T00:24:31.557Z,28.30
2019-02-02T00:27:00.618Z,30.80
2019-02-02T00:29:30.195Z,29.10
2019-02-02T00:31:59.220Z,29.13
2019-02-02T00:34:29.231Z,29.37
2019-02-02T00:36:59.265Z,24.70
2019-02-02T00:39:29.590Z,28.13
2019-02-02T00:41:59.366Z,27.67
2019-02-02T00:44:28.407Z,26.73
2019-02-02T00:46:57.764Z,23.60
2019-02-02T00:49:27.410Z,25.23
2019-02-02T00:51:56.464Z,26.20
2019-02-02T00:54:26.189Z,24.50
2019-02-02T00:56:55.577Z,26.50
2019-02-02T00:59:24.900Z,24.03
2019-02-02T01:01:54.610Z,25.83
2019-02-02T01:04:23.718Z,26.80
2019-02-02T01:06:53.165Z,25.87
2019-02-02T01:09:25.546Z,28.20
2019-02-02T01:11:55.245Z,22.83
2019-02-02T01:14:24.754Z,24.77
2019-02-02T01:16:54.235Z,24.23
2019-02-02T01:19:25.491Z,24.80
2019-02-02T01:21:54.543Z,25.97
2019-02-02T01:24:24.350Z,25.37
2019-02-02T01:26:53.898Z,22.23
2019-02-02T01:29:23.022Z,25.50
2019-02-02T01:31:52.180Z,24.77
2019-02-02T01:34:21.275Z,22.30
2019-02-02T01:36:50.686Z,24.93
2019-02-02T01:39:19.625Z,22.77
2019-02-02T01:41:48.765Z,23.20
2019-02-02T01:44:18.436Z,22.17
2019-02-02T01:46:48.142Z,27.67
2019-02-02T01:49:19.130Z,19.93
2019-02-02T01:51:48.535Z,23.33
2019-02-02T01:54:17.940Z,24.50
2019-02-02T01:56:47.344Z,21.53
2019-02-02T01:59:16.402Z,24.03
2019-02-02T02:01:46.134Z,21.73
2019-02-02T02:04:16.065Z,22.13
2019-02-02T02:06:45.243Z,19.83
2019-02-02T02:09:14.401Z,21.90
2019-02-02T02:11:44.172Z,19.97
2019-02-02T02:14:14.081Z,21.17
2019-02-02T02:16:43.475Z,24.93
2019-02-02T02:19:12.514Z,19.87
2019-02-02T02:21:41.834Z,19.33
2019-02-02T02:24:11.844Z,23.57
2019-02-02T02:26:40.950Z,22.60
2019-02-02T02:29:10.679Z,24.87
2019-02-02T02:31:40.512Z,21.53
2019-02-02T02:34:09.649Z,22.10
2019-02-02T02:36:39.420Z,21.03
2019-02-02T02:39:10.991Z,24.63
2019-02-02T02:41:40.626Z,23.57
2019-02-02T02:44:10.914Z,21.30
2019-02-02T02:46:40.685Z,21.17
2019-02-02T02:49:09.831Z,23.43
2019-02-02T02:51:39.513Z,23.97
2019-02-02T02:54:10.427Z,23.53
2019-02-02T02:56:40.144Z,23.30
2019-02-02T02:59:09.130Z,18.50
2019-02-02T03:01:38.192Z,20.00
2019-02-02T03:04:07.998Z,18.80
2019-02-02T03:06:37.478Z,21.40
2019-02-02T03:09:09.420Z,22.03
2019-02-02T03:11:38.827Z,22.77
2019-02-02T03:14:09.551Z,24.00
2019-02-02T03:16:39.305Z,19.37
2019-02-02T03:19:09.561Z,17.43
2019-02-02T03:21:43.601Z,17.17
2019-02-02T03:24:11.253Z,20.83
2019-02-02T03:26:41.278Z,22.87
2019-02-02T03:29:10.649Z,18.30
2019-02-02T03:31:40.372Z,18.30
2019-02-02T03:34:11.058Z,21.57
2019-02-02T03:36:40.953Z,17.23
2019-02-02T03:39:13.706Z,19.73
2019-02-02T03:41:42.869Z,19.13
2019-02-02T03:44:11.974Z,18.40
2019-02-02T03:46:41.342Z,19.10
2019-02-02T03:49:11.114Z,19.07
2019-02-02T03:51:40.464Z,19.77
2019-02-02T03:54:09.456Z,23.43
2019-02-02T03:56:38.903Z,17.80
2019-02-02T03:59:08.542Z,17.50
2019-02-02T04:01:37.842Z,20.37
2019-02-02T04:04:06.877Z,24.70
2019-02-02T04:06:36.562Z,19.70
2019-02-02T04:09:08.715Z,18.13
2019-02-02T04:11:37.803Z,18.23
2019-02-02T04:14:07.543Z,18.20
2019-02-02T04:16:36.628Z,19.67
2019-02-02T04:19:06.375Z,18.27
2019-02-02T04:21:37.268Z,16.97
2019-02-02T04:24:07.413Z,16.17
2019-02-02T04:26:36.626Z,17.10
2019-02-02T04:29:17.329Z,19.20
2019-02-02T04:31:37.227Z,18.93
2019-02-02T04:34:06.587Z,17.50
2019-02-02T04:36:35.726Z,16.27
2019-02-02T04:39:07.498Z,17.10
2019-02-02T04:41:37.145Z,17.03
2019-02-02T04:44:06.637Z,14.70
2019-02-02T04:46:35.598Z,18.03
2019-02-02T04:49:05.720Z,15.53
2019-02-02T04:51:35.522Z,15.17
2019-02-02T04:54:05.582Z,16.07
2019-02-02T04:56:34.656Z,14.90
2019-02-02T04:59:04.115Z,14.93
2019-02-02T05:01:33.236Z,16.43
2019-02-02T05:04:02.736Z,17.57
2019-02-02T05:06:31.784Z,16.83
2019-02-02T05:09:03.499Z,17.47
2019-02-02T05:11:32.644Z,19.93
2019-02-02T05:14:01.992Z,15.63
2019-02-02T05:16:32.632Z,16.90
2019-02-02T05:19:02.387Z,15.63
2019-02-02T05:21:32.045Z,16.20
2019-02-02T05:24:01.051Z,16.37
2019-02-02T05:26:30.339Z,18.33
2019-02-02T05:28:59.747Z,20.20
2019-02-02T05:31:29.289Z,15.23
2019-02-02T05:33:59.341Z,14.73
2019-02-02T05:36:30.574Z,15.40
2019-02-02T05:39:00.219Z,17.30
2019-02-02T05:41:29.845Z,15.17
2019-02-02T05:43:59.309Z,14.57
2019-02-02T05:46:28.356Z,19.33
2019-02-02T05:48:57.553Z,13.70
2019-02-02T05:51:27.267Z,16.17
2019-02-02T05:53:56.577Z,14.30
2019-02-02T05:56:25.950Z,14.20
2019-02-02T05:58:55.353Z,15.80
2019-02-02T06:01:25.453Z,13.70
2019-02-02T06:03:55.011Z,15.73
2019-02-02T06:06:24.381Z,15.37
2019-02-02T06:08:57.149Z,17.03
2019-02-02T06:11:26.929Z,16.97
2019-02-02T06:13:55.953Z,15.23
2019-02-02T06:16:25.933Z,15.67
2019-02-02T06:18:55.368Z,15.30
2019-02-02T06:21:25.126Z,13.20
2019-02-02T06:23:54.728Z,13.27
2019-02-02T06:26:24.487Z,15.20
2019-02-02T06:28:53.837Z,13.50
2019-02-02T06:31:22.832Z,11.90
2019-02-02T06:33:52.182Z,13.87
2019-02-02T06:36:21.243Z,12.27
2019-02-02T06:38:50.944Z,12.00
2019-02-02T06:41:20.385Z,13.27
2019-02-02T06:43:50.166Z,13.00
2019-02-02T06:46:20.322Z,12.90
2019-02-02T06:48:49.865Z,12.40
2019-02-02T06:51:18.854Z,13.00
2019-02-02T06:53:48.297Z,11.37
2019-02-02T06:56:19.926Z,9.83
2019-02-02T06:58:49.400Z,10.33
2019-02-02T07:01:18.903Z,13.37
2019-02-02T07:03:48.501Z,11.53
2019-02-02T07:06:17.858Z,12.50
2019-02-02T07:08:47.576Z,11.67
2019-02-02T07:11:16.882Z,8.97
2019-02-02T07:13:46.323Z,9.10
2019-02-02T07:16:15.724Z,11.53
2019-02-02T07:18:44.647Z,11.60
2019-02-02T07:21:13.690Z,8.33
2019-02-02T07:23:43.361Z,10.83
2019-02-02T07:26:13.355Z,10.73
2019-02-02T07:28:43.135Z,10.50
2019-02-02T07:31:13.243Z,11.77
2019-02-02T07:33:42.965Z,10.43
2019-02-02T07:36:12.009Z,10.43
2019-02-02T07:38:41.319Z,12.20
2019-02-02T07:41:10.815Z,11.83
2019-02-02T07:43:40.683Z,12.03
2019-02-02T07:46:14.926Z,14.33
2019-02-02T07:48:41.628Z,9.43
2019-02-02T07:51:10.709Z,11.13
2019-02-02T07:53:40.041Z,11.77
2019-02-02T07:56:09.813Z,12.47
2019-02-02T07:58:39.279Z,11.97
2019-02-02T08:01:09.807Z,8.80
2019-02-02T08:03:41.800Z,10.07
2019-02-02T08:06:12.602Z,12.03
2019-02-02T08:08:42.269Z,12.40
2019-02-02T08:11:11.637Z,11.93
2019-02-02T08:13:40.927Z,11.47
2019-02-02T08:16:09.978Z,8.03
2019-02-02T08:18:39.425Z,10.73
2019-02-02T08:21:08.812Z,8.47
2019-02-02T08:23:38.589Z,10.87
2019-02-02T08:26:08.531Z,16.23
2019-02-02T08:28:37.982Z,12.03
2019-02-02T08:31:07.137Z,13.17
2019-02-02T08:33:36.922Z,14.77
2019-02-02T08:36:06.162Z,13.47
2019-02-02T08:38:35.318Z,15.17
2019-02-02T08:41:04.733Z,12.73
2019-02-02T08:43:34.838Z,15.20
2019-02-02T08:46:04.947Z,12.87
2019-02-02T08:48:34.583Z,15.27
2019-02-02T08:51:05.730Z,16.37
2019-02-02T08:53:35.385Z,15.03
2019-02-02T08:56:04.913Z,14.43
2019-02-02T08:58:34.971Z,12.13
2019-02-02T09:01:04.639Z,9.97
2019-02-02T09:03:34.397Z,11.17
2019-02-02T09:06:03.623Z,11.87
2019-02-02T09:08:32.706Z,14.23
2019-02-02T09:11:03.586Z,12.07
2019-02-02T09:13:33.378Z,14.87
2019-02-02T09:16:04.468Z,11.83
2019-02-02T09:18:33.436Z,13.87
2019-02-02T09:21:03.394Z,16.47
2019-02-02T09:23:32.501Z,13.03
2019-02-02T09:26:02.110Z,13.07
2019-02-02T09:28:32.118Z,11.07
2019-02-02T09:31:01.082Z,12.37
2019-02-02T09:33:30.234Z,11.27
2019-02-02T09:35:59.725Z,13.43
2019-02-02T09:38:28.988Z,10.17
2019-02-02T09:40:58.187Z,9.73
2019-02-02T09:43:35.592Z,9.50
2019-02-02T09:46:04.884Z,7.83
2019-02-02T09:48:34.981Z,10.87
2019-02-02T09:51:05.089Z,9.70
2019-02-02T09:53:34.194Z,8.90
2019-02-02T09:56:05.150Z,10.37
2019-02-02T09:58:34.868Z,9.47
2019-02-02T10:01:04.812Z,8.73
2019-02-02T10:03:33.852Z,8.53
2019-02-02T10:06:03.215Z,8.30
2019-02-02T10:08:32.633Z,6.73
2019-02-02T10:11:01.967Z,7.17
2019-02-02T10:13:30.949Z,6.63
2019-02-02T10:16:00.051Z,8.47
2019-02-02T10:18:29.942Z,6.10
2019-02-02T10:21:04.179Z,7.50
2019-02-02T10:23:30.541Z,5.40
2019-02-02T10:26:10.510Z,6.13
2019-02-02T10:28:40.127Z,6.53
2019-02-02T10:31:09.529Z,5.97
2019-02-02T10:33:39.871Z,6.10
2019-02-02T10:36:09.442Z,5.47
2019-02-02T10:38:38.846Z,7.90
2019-02-02T10:41:07.813Z,6.23
2019-02-02T10:43:39.394Z,6.63
2019-02-02T10:46:10.812Z,6.40
2019-02-02T10:48:40.181Z,7.30
2019-02-02T10:51:10.068Z,5.97
2019-02-02T10:53:39.479Z,6.53
2019-02-02T10:56:08.976Z,7.60
2019-02-02T10:58:38.774Z,5.67
2019-02-02T11:01:08.611Z,5.20
2019-02-02T11:03:37.648Z,6.10
2019-02-02T11:06:08.309Z,7.60
2019-02-02T11:08:38.115Z,7.33
2019-02-02T11:11:07.608Z,3.70
2019-02-02T11:13:37.001Z,4.60
2019-02-02T11:16:10.902Z,4.50
2019-02-02T11:18:38.000Z,4.57
2019-02-02T11:21:07.455Z,4.37
2019-02-02T11:23:37.457Z,4.13
2019-02-02T11:26:08.982Z,4.63
2019-02-02T11:28:39.150Z,4.40
2019-02-02T11:31:08.128Z,4.60
2019-02-02T11:33:37.352Z,4.23
2019-02-02T11:36:07.320Z,4.53
2019-02-02T11:38:37.365Z,5.53
2019-02-02T11:41:07.206Z,5.37
2019-02-02T11:43:36.709Z,4.17
2019-02-02T11:46:06.545Z,3.67
2019-02-02T11:48:36.326Z,4.13
2019-02-02T11:51:05.353Z,4.80
2019-02-02T11:53:37.300Z,3.73
2019-02-02T11:56:06.377Z,3.63
2019-02-02T11:58:35.911Z,3.00
2019-02-02T12:01:06.456Z,4.43
2019-02-02T12:03:35.470Z,4.47
2019-02-02T12:06:05.082Z,3.10
2019-02-02T12:08:34.915Z,4.70
2019-02-02T12:11:05.754Z,4.90
2019-02-02T12:13:39.623Z,4.10
2019-02-02T12:16:09.448Z,3.40
2019-02-02T12:18:38.538Z,3.40
2019-02-02T12:21:07.911Z,3.13
2019-02-02T12:23:38.430Z,3.53
2019-02-02T12:26:08.308Z,3.90
2019-02-02T12:28:38.172Z,3.53
2019-02-02T12:31:08.014Z,3.23
2019-02-02T12:33:37.505Z,3.60
2019-02-02T12:36:06.749Z,4.30
2019-02-02T12:38:36.135Z,4.73
2019-02-02T12:41:07.514Z,3.80
2019-02-02T12:43:38.745Z,5.17
2019-02-02T12:46:09.788Z,3.70
2019-02-02T12:48:40.051Z,3.50
2019-02-02T12:51:10.163Z,4.13
2019-02-02T12:53:39.301Z,4.07
2019-02-02T12:56:08.847Z,4.00
2019-02-02T12:58:38.069Z,3.73
2019-02-02T13:01:08.376Z,3.63
2019-02-02T13:03:38.472Z,3.87
2019-02-02T13:06:08.093Z,4.83
2019-02-02T13:08:37.659Z,3.73
2019-02-02T13:11:06.857Z,5.40
2019-02-02T13:13:42.403Z,2.93
2019-02-02T13:16:10.837Z,4.23
2019-02-02T13:18:40.322Z,4.57
2019-02-02T13:21:09.748Z,3.80
2019-02-02T13:23:38.867Z,5.27
2019-02-02T13:26:08.578Z,4.57
2019-02-02T13:28:39.397Z,4.83
2019-02-02T13:31:09.101Z,4.80
2019-02-02T13:33:38.177Z,3.87
2019-02-02T13:36:08.323Z,4.77
2019-02-02T13:38:38.271Z,6.80
2019-02-02T13:41:09.500Z,4.10
2019-02-02T13:43:39.344Z,4.20
2019-02-02T13:46:09.230Z,3.10
2019-02-02T13:48:38.846Z,4.10
2019-02-02T13:51:08.396Z,3.73
2019-02-02T13:53:38.713Z,3.40
2019-02-02T13:56:09.223Z,3.73
2019-02-02T13:58:39.682Z,5.07
2019-02-02T14:01:09.817Z,4.57
2019-02-02T14:03:39.279Z,3.43
2019-02-02T14:06:08.742Z,4.00
2019-02-02T14:08:38.028Z,4.63
2019-02-02T14:11:07.887Z,3.93
2019-02-02T14:13:39.431Z,3.50
2019-02-02T14:16:12.182Z,3.57
2019-02-02T14:18:41.817Z,4.13
2019-02-02T14:21:11.709Z,4.40
2019-02-02T14:23:41.023Z,3.60
2019-02-02T14:26:10.738Z,3.53
2019-02-02T14:28:41.851Z,3.80
2019-02-02T14:31:11.703Z,3.80
2019-02-02T14:33:41.253Z,4.50
2019-02-02T14:36:11.106Z,6.77
2019-02-02T14:38:40.619Z,4.93
2019-02-02T14:41:09.781Z,4.03
2019-02-02T14:43:38.923Z,3.73
2019-02-02T14:46:08.007Z,3.90
2019-02-02T14:48:37.450Z,4.37
2019-02-02T14:53:29.230Z,3.97
2019-02-02T14:55:58.603Z,6.03
2019-02-02T14:58:28.704Z,4.60
2019-02-02T15:00:58.009Z,4.60
2019-02-02T15:03:28.049Z,4.73
2019-02-02T15:05:57.659Z,5.00
2019-02-02T15:08:27.507Z,4.07
2019-02-02T15:10:56.937Z,3.93
2019-02-02T15:13:28.848Z,3.53
2019-02-02T15:15:58.147Z,3.67
2019-02-02T15:18:29.541Z,6.50
2019-02-02T15:21:00.646Z,4.60
2019-02-02T15:23:30.129Z,5.20
2019-02-02T15:25:59.882Z,5.00
2019-02-02T15:28:29.452Z,4.67
2019-02-02T15:30:59.612Z,4.87
2019-02-02T15:33:37.544Z,5.47
2019-02-02T15:36:02.486Z,5.33
2019-02-02T15:38:32.683Z,5.23
2019-02-02T15:41:02.723Z,5.97
2019-02-02T15:43:32.508Z,7.13
2019-02-02T15:46:02.666Z,6.30
2019-02-02T15:48:31.966Z,5.33
2019-02-02T15:51:04.501Z,5.03
2019-02-02T15:53:34.456Z,5.20
2019-02-02T15:56:04.333Z,5.47
2019-02-02T15:58:34.588Z,5.80
2019-02-02T16:01:06.726Z,7.43
2019-02-02T16:03:36.501Z,5.93
2019-02-02T16:06:06.173Z,6.23
2019-02-02T16:08:35.527Z,6.60
2019-02-02T16:11:05.301Z,6.53
2019-02-02T16:13:35.347Z,7.00
2019-02-02T16:16:05.186Z,8.67
2019-02-02T16:18:34.750Z,5.70
2019-02-02T16:21:05.676Z,8.30
2019-02-02T16:23:35.341Z,6.57
2019-02-02T16:26:05.114Z,6.47
2019-02-02T16:28:34.570Z,6.50
2019-02-02T16:31:04.154Z,6.70
2019-02-02T16:33:33.219Z,6.37
2019-02-02T16:36:02.875Z,9.27
2019-02-02T16:38:32.466Z,6.97
2019-02-02T16:41:02.161Z,5.70
2019-02-02T16:43:32.478Z,6.53
2019-02-02T16:46:02.267Z,8.07
2019-02-02T16:48:34.296Z,6.33
2019-02-02T16:51:03.675Z,6.27
2019-02-02T16:53:33.129Z,6.30
2019-02-02T16:56:02.578Z,9.60
2019-02-02T16:58:31.757Z,7.77
2019-02-02T17:01:00.874Z,7.40
2019-02-02T17:03:31.611Z,8.43
2019-02-02T17:06:01.695Z,9.17
2019-02-02T17:08:30.834Z,8.03
2019-02-02T17:11:00.297Z,10.10
2019-02-02T17:13:30.046Z,7.90
2019-02-02T17:16:00.322Z,7.63
2019-02-02T17:18:31.854Z,8.93
2019-02-02T17:21:00.980Z,8.20
2019-02-02T17:23:30.394Z,11.80
2019-02-02T17:25:59.762Z,11.07
2019-02-02T17:28:29.068Z,13.23
2019-02-02T17:30:58.618Z,9.97
2019-02-02T17:33:28.070Z,11.97
2019-02-02T17:35:57.945Z,11.80
2019-02-02T17:38:27.711Z,12.73
2019-02-02T17:40:57.566Z,14.60
2019-02-02T17:43:26.980Z,14.13
2019-02-02T17:45:56.561Z,13.40
2019-02-02T17:48:25.892Z,15.17
2019-02-02T17:50:55.478Z,16.57
2019-02-02T17:53:25.305Z,15.03
2019-02-02T17:55:54.812Z,15.67
2019-02-02T17:58:26.144Z,15.50
2019-02-02T18:01:02.506Z,14.60
2019-02-02T18:03:32.529Z,14.30
2019-02-02T18:06:02.009Z,17.17
2019-02-02T18:08:31.366Z,14.67
2019-02-02T18:11:01.160Z,17.53
2019-02-02T18:13:30.564Z,18.17
2019-02-02T18:16:00.432Z,14.63
2019-02-02T18:18:29.938Z,16.07
2019-02-02T18:20:59.673Z,17.30
2019-02-02T18:23:29.480Z,17.00
2019-02-02T18:26:00.722Z,20.37
2019-02-02T18:28:32.139Z,19.47
2019-02-02T18:31:01.969Z,21.07
2019-02-02T18:33:32.006Z,16.57
2019-02-02T18:36:02.846Z,21.43
2019-02-02T18:38:32.910Z,21.13
2019-02-02T18:41:04.426Z,24.60
2019-02-02T18:43:34.209Z,21.93
2019-02-02T18:46:04.773Z,22.23
2019-02-02T18:48:35.853Z,23.43
2019-02-02T18:51:05.547Z,23.60
2019-02-02T18:53:36.434Z,21.57
2019-02-02T18:56:10.314Z,23.17
2019-02-02T18:58:40.363Z,24.77
2019-02-02T19:01:11.155Z,27.60
2019-02-02T19:03:41.475Z,23.80
2019-02-02T19:06:11.466Z,24.80
2019-02-02T19:08:41.661Z,25.93
2019-02-02T19:11:12.113Z,26.13
2019-02-02T19:13:42.365Z,28.77
2019-02-02T19:16:13.583Z,28.03
2019-02-02T19:18:45.036Z,29.00
2019-02-02T19:21:18.551Z,24.43
2019-02-02T19:23:48.941Z,24.73
2019-02-02T19:26:18.948Z,28.03
2019-02-02T19:28:49.697Z,25.60
2019-02-02T19:31:20.769Z,24.13
2019-02-02T19:33:51.844Z,25.97
2019-02-02T19:36:22.959Z,26.67
2019-02-02T19:38:53.658Z,25.27
2019-02-02T19:41:24.118Z,25.17
2019-02-02T19:43:55.503Z,24.60
2019-02-02T19:46:27.379Z,23.73
2019-02-02T19:48:59.789Z,29.17
2019-02-02T19:51:33.647Z,27.30
2019-02-02T19:54:07.370Z,24.57
2019-02-02T19:56:37.750Z,22.70
2019-02-02T19:59:08.510Z,24.13
2019-02-02T20:01:38.774Z,23.90
2019-02-02T20:04:09.600Z,22.27
2019-02-02T20:06:40.753Z,22.10
2019-02-02T20:09:12.997Z,24.33
2019-02-02T20:11:43.608Z,22.40
2019-02-02T20:14:15.321Z,21.70
2019-02-02T20:16:47.203Z,23.17
2019-02-02T20:19:18.328Z,23.83
2019-02-02T20:21:48.872Z,23.03
2019-02-02T20:24:20.629Z,25.00
2019-02-02T20:26:51.970Z,28.80
2019-02-02T20:29:24.302Z,27.50
2019-02-02T20:31:56.435Z,22.07
2019-02-02T20:34:28.495Z,26.40
2019-02-02T20:36:59.819Z,26.90
2019-02-02T20:39:31.940Z,25.20
2019-02-02T20:42:03.472Z,25.40
2019-02-02T20:44:36.929Z,24.73
2019-02-02T20:47:07.825Z,28.17
2019-02-02T20:49:39.611Z,28.37
2019-02-02T20:52:11.509Z,30.77
2019-02-02T20:54:42.142Z,29.83
2019-02-02T20:57:13.199Z,30.13
2019-02-02T20:59:46.410Z,30.43
2019-02-02T21:02:17.256Z,32.03
2019-02-02T21:04:48.081Z,27.37
2019-02-02T21:07:18.469Z,34.60
2019-02-02T21:09:50.123Z,33.37
2019-02-02T21:12:21.407Z,28.60
2019-02-02T21:14:51.684Z,35.83
2019-02-02T21:17:25.118Z,34.70
2019-02-02T21:19:57.949Z,31.97
2019-02-02T21:22:27.746Z,35.10
2019-02-02T21:24:57.967Z,39.10
2019-02-02T21:27:28.345Z,37.53
2019-02-02T21:29:59.047Z,34.57
2019-02-02T21:32:29.661Z,34.97
2019-02-02T21:35:00.133Z,34.57
2019-02-02T21:37:31.727Z,31.70
2019-02-02T21:40:02.328Z,35.17
2019-02-02T21:42:32.203Z,38.07
2019-02-02T21:45:02.001Z,44.48
2019-02-02T21:47:31.841Z,42.07
2019-02-02T21:50:01.751Z,37.53
2019-02-02T21:52:32.948Z,41.40
2019-02-02T21:55:18.361Z,44.80
2019-02-02T21:57:52.315Z,41.53
2019-02-02T22:00:29.103Z,44.23
2019-02-02T22:03:00.028Z,38.90
2019-02-02T22:05:30.760Z,41.63
2019-02-02T22:08:02.108Z,43.17
2019-02-02T22:10:31.694Z,49.47
2019-02-02T22:13:01.697Z,43.27
2019-02-02T22:15:32.222Z,49.63
2019-02-02T22:18:02.136Z,42.23
2019-02-02T22:20:33.087Z,49.33
2019-02-02T22:23:03.861Z,44.67
2019-02-02T22:25:33.523Z,47.90
2019-02-02T22:28:04.327Z,48.40
2019-02-02T22:30:35.240Z,50.47
2019-02-02T22:33:04.534Z,44.73
2019-02-02T22:35:33.491Z,51.83
2019-02-02T22:38:03.046Z,46.30
2019-02-02T22:40:33.162Z,43.27
2019-02-02T22:43:02.803Z,42.33
2019-02-02T22:45:32.886Z,45.00
2019-02-02T22:48:02.245Z,48.63
2019-02-02T22:50:31.531Z,43.63
2019-02-02T22:53:00.942Z,45.33
2019-02-02T22:55:30.842Z,45.37
2019-02-02T22:58:00.276Z,48.50
2019-02-02T23:00:53.287Z,48.87
2019-02-02T23:03:25.010Z,54.80
2019-02-02T23:06:15.247Z,61.10
2019-02-02T23:09:21.416Z,51.80
2019-02-02T23:12:13.726Z,53.30
2019-02-02T23:15:29.776Z,55.93
2019-02-02T23:17:58.979Z,55.40
2019-02-02T23:20:28.729Z,53.73
2019-02-02T23:22:58.373Z,53.50
2019-02-02T23:25:28.141Z,56.67
2019-02-02T23:27:58.231Z,59.33
2019-02-02T23:30:27.429Z,63.27
2019-02-02T23:32:56.755Z,55.73
2019-02-02T23:35:26.447Z,61.17
2019-02-02T23:37:55.678Z,57.20
2019-02-02T23:40:25.549Z,62.90
2019-02-02T23:42:55.402Z,60.23
2019-02-02T23:45:24.854Z,59.73
2019-02-02T23:47:54.622Z,65.43
2019-02-02T23:50:23.973Z,65.87
2019-02-02T23:52:53.065Z,56.57
2019-02-02T23:55:23.389Z,54.30
2019-02-02T23:57:52.465Z,58.70
